Detailed Flight Report of Nuri Burak ERKAL ;
Number CXD079 
Departure Aerodrome LMML 
Arrival Aerodrome LTFJ

Map generated by the Great Circle Mapper - copyright © Karl L. Swartz.

Pilot In Command CXD079 : Nuri Burak Erkal
Aircraft B773 / TC-NZL
Date Of Flight 2020-06-06
Departure Time 15:30 UTC
Arrival Time 16:47 UTC
Block Time 01:17
Distance 560 Nm.
Used Fuel 16,940 Lbs.
   
Detailed Flight Log [2020/06/06 15:51:00]
Flight IATA:C001
Pilot Number:079
Company ICAO:CXD
Aircraft Type:B773
Aircraft Registration:TC-NZL
Departing Airport: LMML
Destination Airport: LTFJ
Alternate Airport:LTFM
Online: VATSIM
Route:AGARI M978 BINKO N45 ROTAS UN45 MONUV UP32 MIL UR32 IMR UG80 DUGLA UY371 IZMAL
Flight Level:FL350
No pause
15:51 Zero fuel Weight: 501255 Lbs, Fuel Weight: 45075 Lbs
15:51 VATSIM:LMML 042315Z 14015KT CAVOK 21/18 Q1007 NOSIG
15:51 VATSIM:LTFJ 042320Z 00000KT CAVOK 18/12 Q1014 NOSIG
15:52 V2= 288 Knots
15:52 Take-off
15:52 Take off Weight: 546313 Lbs
15:52 Wind: 313º @ 059 Knots Heading: 080º
15:52 POS N35º 58´ 26´´ E020º 38´ 45´´
15:52 N11 84 N12 84
15:52 Gear Up: 288 Knots
15:52 TOC
15:52 Fuel Weight: 45043 Lb
16:07 Wind:321º@053 Knots Heading: 084º Ground Speed: 505 Knots Altitude 36912 ft
16:22 Wind:316º@050 Knots Heading: 047º Ground Speed: 508 Kno
ts Altitude 35026 ft
16:37 Wind:316º@043 Knots Heading: 013º Ground Speed: 482 Knots Altitude 35006 ft
16:39 TOD
16:39 Fuel Weight: 31601 Lb
16:52 Wind:278º@016 Knots Heading: 025º Ground Speed: 374 Knots Altitude 19514 ft
17:06 Flaps:1º at 217 Knots
17:06 Flaps:5º at 210 Knots
17:06 Gear Down: 214 Knots
17:06 Flaps:15º at 215 Knots
17:07 Wind:218º@013 Knots Heading: 065º Ground Speed: 234 Knots Altitude 2312 ft
17:07 Flaps:30º at 207 Knots
17:07 Flaps:35º at 194 Knots
17:08 Flaps:30º at 181 Knots
17:08 Gear Up: 180 Knots
17:08 Gear Down: 179 Knots
17:08 Gear Up: 178 Knots
17:08 Gear Down: 177 Knots
17:08 Gear Up: 177 Knots
17:08 Flaps:15º at 174 Knots
17:08 Gear Down: 173 Knots
17:08 Flaps:5º at 173 Knots
17:08 Flaps:1º at 162 Knots
17:08 TouchDown:Rate -474 ft/min Speed: 155 Knots
17:08 Flaps:Up at 164 Knots
17:08 VATSIM:LTFJ 050050Z 00000KT CAVOK 18/
11 Q1014 NOSIG
17:08 Land
17:08 Wind:359º@000 Knots
17:08 Heading: 064º
17:08 Flight Duration: 01:16
17:08 Landing Weight: 529513 Lbs
17:08 POS N40º 54´ 01´´ E029º 18´ 52´´
17:09 Parking brakes on
17:09 Block to Block Duration: 01:17
17:09 Final Fuel: 28134 Lbls
17:09 Spent Fuel: 16940 Lbls
17:09 Flight Length: 560 NM
17:09 TOD Land Length: 167 NM

Text Link of Flight Log http://www.candanair.net/acars/logs/CXD07920200606155100.txt
   

[ Back ]